Wednesday, October 18, 2017, 6:01 PM EDT
Back to Local

KPVC, Provincetown, Provincetown Municipal Airport

Location: Provincetown, MA, United States Lat: 42.067
Local Time: 6:01 PM EDT (22:01 GMT) Lon: -70.217
Time Zone: US/Eastern Elev: 6 ft

Show me the last for .
Show Coded

Time T Td Feel RH Dir Speed Gust Alt SLP Vis Weather Sky Remarks
2017-10-18 16:56 65 46 - 50 210° 3 - 30.24 30.23 10 CLR None
2017-10-18 15:56 66 46 - 48 270° 5 - 30.23 30.23 10 CLR None
2017-10-18 14:56 65 48 - 54 280° 6 - 30.23 30.22 10 CLR None
2017-10-18 13:56 65 49 - 56 290° 7 - 30.23 30.23 10 CLR 6-hr Min Temp (2pm): 54.0°F
6-hr Max Temp (2pm): 64.9°F
2017-10-18 12:56 64 48 - 55 270° 9 - 30.25 30.25 10 CLR None
2017-10-18 11:56 63 48 - 58 260° 9 - 30.27 30.27 10 CLR None
2017-10-18 10:56 60 46 - 59 270° 13 - 30.27 30.27 10 CLR None
2017-10-18 09:56 59 44 - 57 260° 15 - 30.27 30.27 10 CLR None
2017-10-18 08:56 57 44 - 61 250° 15 - 30.26 30.26 10 CLR None
2017-10-18 07:56 54 45 - 71 240° 12 - 30.25 30.24 10 CLR 6-hr Min Temp (8am): 52.0°F
6-hr Max Temp (8am): 54.0°F
2017-10-18 06:56 52 44 - 74 230° 13 - 30.22 30.22 10 CLR None
2017-10-18 05:56 53 43 - 68 250° 17 - 30.22 30.22 10 CLR None
2017-10-18 04:56 53 42 - 66 250° 15 22 30.21 30.21 10 CLR None
2017-10-18 03:56 53 45 - 73 240° 16 - 30.21 30.21 10 CLR None
2017-10-18 02:56 53 44 - 71 240° 18 - 30.22 30.22 10 CLR None
2017-10-18 01:56 52 42 - 68 240° 16 - 30.24 30.24 10 CLR 6-hr Min Temp (2am): 50.0°F
6-hr Max Temp (2am): 52.0°F
2017-10-18 00:56 52 42 - 68 240° 16 23 30.25 30.25 10 CLR 24-hr Min Temp (1am): 46.0°F
24-hr Max Temp (1am): 53.1°F
2017-10-17 23:56 52 42 - 68 240° 17 - 30.25 30.25 10 CLR None
2017-10-17 22:56 51 41 - 68 240° 17 24 30.26 30.26 10 CLR None
2017-10-17 21:56 51 40 - 65 240° 16 - 30.27 30.26 10 CLR None
2017-10-17 20:56 51 40 - 65 240° 14 - 30.26 30.26 10 CLR None
2017-10-17 19:56 51 39 - 63 210° 13 - 30.25 30.25 10 CLR 6-hr Min Temp (8pm): 46.0°F
6-hr Max Temp (8pm): 53.1°F
2017-10-17 18:56 49 39 45 68 200° 10 - 30.25 30.25 10 CLR None

Support USWX by starting your Amazon purchase here.